Time;durP1;ratioP1;P1;durP2;ratioP2;P2;SDS_P1;SDS_P2;PMS_P1;PMS_P2;Temp;Humidity;BMP_temperature;BMP_pressure;BME280_temperature;BME280_humidity;BME280_pressure;Samples;Min_cycle;Max_cycle;Signal;HPM_P1;HPM_P2
2021/04/08 00:00:54;;;;;;;45.40;15.78;;;;;;;-0.91;75.82;98456.31;2259218;79;21268;-74
2021/04/08 00:03:58;;;;;;;44.03;15.38;;;;;;;-0.92;76.00;98461.50;2227159;79;21127;-74
2021/04/08 00:07:00;;;;;;;49.20;15.68;;;;;;;-0.95;76.18;98462.44;2259240;79;21285;-74
2021/04/08 00:10:02;;;;;;;48.50;15.98;;;;;;;-0.97;76.06;98459.02;2227552;79;21287;-74
2021/04/08 00:13:07;;;;;;;47.95;19.25;;;;;;;-0.99;76.05;98457.34;2259057;79;21276;-73
2021/04/08 00:16:12;;;;;;;52.90;19.90;;;;;;;-1.04;76.43;98461.31;2259397;79;21740;-73
2021/04/08 00:19:14;;;;;;;;;;;;;;;-1.03;76.64;98464.30;2261753;79;21146;-74
2021/04/08 00:22:17;;;;;;;52.17;18.25;;;;;;;-1.05;76.61;98458.32;2259259;79;20149;-74
2021/04/08 00:25:19;;;;;;;48.05;17.52;;;;;;;-1.09;76.59;98463.98;2259192;79;21127;-74
2021/04/08 00:28:23;;;;;;;48.28;18.17;;;;;;;-1.08;76.62;98467.39;2259058;79;21253;-74
2021/04/08 00:31:27;;;;;;;50.25;18.02;;;;;;;-1.09;76.39;98466.55;2259463;79;21701;-74
2021/04/08 00:34:29;;;;;;;48.17;17.50;;;;;;;-1.09;76.16;98472.99;2259106;79;21725;-74
2021/04/08 00:37:32;;;;;;;54.50;20.80;;;;;;;-1.12;76.30;98465.75;2259062;79;21151;-74
2021/04/08 00:40:35;;;;;;;51.55;19.60;;;;;;;-1.15;76.31;98470.55;2227668;79;21682;-74
2021/04/08 00:43:37;;;;;;;54.98;19.92;;;;;;;-1.17;76.33;98472.28;2259041;79;21712;-74
2021/04/08 00:46:39;;;;;;;52.50;19.92;;;;;;;-1.19;76.29;98474.05;2259620;79;21134;-74
2021/04/08 00:49:41;;;;;;;45.00;18.35;;;;;;;-1.20;76.41;98476.20;2227622;79;21273;-73
2021/04/08 00:52:43;;;;;;;47.88;19.02;;;;;;;-1.24;76.52;98464.27;2259183;79;21272;-74
2021/04/08 00:55:45;;;;;;;49.13;19.20;;;;;;;-1.25;76.37;98472.86;2262575;79;21311;-74
2021/04/08 00:58:47;;;;;;;49.05;19.77;;;;;;;-1.27;76.69;98472.89;2266669;79;21296;-73
2021/04/08 01:01:49;;;;;;;49.40;19.25;;;;;;;-1.25;76.67;98476.72;2266301;79;21248;-74
2021/04/08 01:04:51;;;;;;;51.15;18.90;;;;;;;-1.25;76.47;98471.57;2266574;79;21307;-74
2021/04/08 01:07:53;;;;;;;47.93;19.77;;;;;;;-1.23;76.49;98473.70;2266290;79;21158;-74
2021/04/08 01:10:55;;;;;;;47.23;19.50;;;;;;;-1.23;76.35;98480.97;2266712;79;21129;-74
2021/04/08 01:13:57;;;;;;;49.25;18.15;;;;;;;-1.23;76.29;98473.70;2266264;79;21284;-73
2021/04/08 01:16:59;;;;;;;47.62;19.48;;;;;;;-1.22;76.39;98475.41;2266274;79;21265;-74
2021/04/08 01:20:01;;;;;;;49.60;17.27;;;;;;;-1.20;76.09;98485.67;2266316;79;21735;-74
2021/04/08 01:23:03;;;;;;;46.73;17.95;;;;;;;-1.21;76.12;98473.22;2266277;79;21724;-74
2021/04/08 01:26:05;;;;;;;45.30;18.40;;;;;;;-1.22;76.11;98475.41;2266314;79;21260;-74
2021/04/08 01:29:09;;;;;;;45.58;18.35;;;;;;;-1.23;76.00;98471.95;2266349;79;21704;-74
2021/04/08 01:32:11;;;;;;;50.05;18.40;;;;;;;-1.24;76.04;98483.13;2266683;79;21151;-74
2021/04/08 01:35:13;;;;;;;45.28;17.15;;;;;;;-1.26;75.95;98470.73;2266274;79;21276;-74
2021/04/08 01:38:15;;;;;;;47.53;17.67;;;;;;;-1.28;75.85;98469.93;2266552;79;21570;-74
2021/04/08 01:41:18;;;;;;;44.48;16.82;;;;;;;-1.30;75.70;98474.69;2266403;79;21284;-74
2021/04/08 01:44:20;;;;;;;49.18;19.07;;;;;;;-1.32;75.74;98469.99;2236369;79;21284;-74
2021/04/08 01:47:24;;;;;;;50.78;18.37;;;;;;;-1.33;75.76;98465.75;2236357;79;21307;-74
2021/04/08 01:50:26;;;;;;;49.95;17.40;;;;;;;-1.31;75.82;98472.98;2266313;79;21724;-74
2021/04/08 01:53:28;;;;;;;52.27;18.80;;;;;;;-1.32;75.86;98460.56;2266262;79;21280;-74
2021/04/08 01:56:30;;;;;;;49.88;18.12;;;;;;;-1.31;75.73;98461.41;2266260;79;21146;-73
2021/04/08 01:59:32;;;;;;;48.02;17.82;;;;;;;-1.31;75.78;98460.95;2266315;78;21783;-74
2021/04/08 02:02:34;;;;;;;47.25;18.32;;;;;;;-1.32;75.84;98469.99;2266451;79;21271;-74
2021/04/08 02:05:36;;;;;;;54.53;20.68;;;;;;;-1.36;75.90;98482.53;2266406;79;21268;-73
2021/04/08 02:08:38;;;;;;;49.20;18.00;;;;;;;-1.41;75.97;98480.02;2266445;79;21764;-74
2021/04/08 02:11:40;;;;;;;49.77;17.40;;;;;;;-1.41;76.04;98480.88;2266721;79;21272;-73
2021/04/08 02:14:42;;;;;;;46.05;17.70;;;;;;;-1.38;76.06;98476.09;2266449;79;21296;-74
2021/04/08 02:17:46;;;;;;;42.43;16.73;;;;;;;-1.35;76.02;98478.64;2266348;79;21276;-74
2021/04/08 02:20:48;;;;;;;48.17;17.85;;;;;;;-1.33;75.87;98475.59;2266453;79;21772;-74
2021/04/08 02:23:50;;;;;;;45.05;16.37;;;;;;;-1.29;75.87;98476.39;2266591;79;21707;-74
2021/04/08 02:26:54;;;;;;;50.75;17.30;;;;;;;-1.29;76.06;98477.23;2266326;79;21689;-73
2021/04/08 02:29:56;;;;;;;44.55;16.40;;;;;;;-1.20;76.29;98473.63;2236547;79;21752;-74
2021/04/08 02:32:58;;;;;;;49.27;17.50;;;;;;;-1.12;76.17;98478.20;2266459;79;21300;-74
2021/04/08 02:36:00;;;;;;;42.58;16.67;;;;;;;-1.06;76.17;98472.92;2266436;79;21724;-74
2021/04/08 02:39:02;;;;;;;43.73;16.48;;;;;;;-1.02;76.20;98469.00;2266431;79;21723;-74
2021/04/08 02:42:04;;;;;;;42.08;17.00;;;;;;;-0.95;75.97;98475.72;2266421;79;21725;-74
2021/04/08 02:45:06;;;;;;;47.45;17.67;;;;;;;-0.93;75.87;98482.55;2266543;79;21125;-74
2021/04/08 02:48:08;;;;;;;45.52;16.77;;;;;;;-0.91;75.67;98485.09;2266473;79;21252;-73
2021/04/08 02:51:12;;;;;;;42.25;16.02;;;;;;;-0.89;75.59;98491.04;2266522;79;21301;-73
2021/04/08 02:54:14;;;;;;;42.90;16.50;;;;;;;-0.90;75.36;98482.48;2266260;79;21280;-74
2021/04/08 02:57:16;;;;;;;42.48;16.55;;;;;;;-0.90;75.55;98487.62;2260353;79;21281;-74
2021/04/08 03:00:19;;;;;;;41.37;15.95;;;;;;;-0.90;75.64;98495.36;2259382;79;21646;-74
2021/04/08 03:03:21;;;;;;;39.35;15.43;;;;;;;-0.91;75.72;98490.23;2259535;79;21587;-74
2021/04/08 03:06:23;;;;;;;41.48;14.80;;;;;;;-0.91;75.77;98492.36;2259576;79;21666;-73
2021/04/08 03:09:28;;;;;;;40.60;14.85;;;;;;;-0.91;75.66;98490.23;2228078;79;21564;-73
2021/04/08 03:12:30;;;;;;;40.35;15.15;;;;;;;-0.93;75.80;98491.56;2259331;79;21567;-74
2021/04/08 03:15:32;;;;;;;40.30;14.43;;;;;;;-0.90;75.75;98495.36;2259237;79;21288;-73
2021/04/08 03:18:34;;;;;;;41.83;14.40;;;;;;;-0.88;75.75;98494.91;2259275;79;21280;-73
2021/04/08 03:21:36;;;;;;;39.40;14.58;;;;;;;-0.83;75.96;98493.52;2259275;79;21273;-74
2021/04/08 03:24:38;;;;;;;37.38;13.15;;;;;;;-0.81;76.11;98495.61;2259404;79;21135;-74
2021/04/08 03:27:40;;;;;;;35.33;12.75;;;;;;;-0.80;76.55;98500.34;2259387;79;21681;-74
2021/04/08 03:30:42;;;;;;;36.15;12.33;;;;;;;-0.83;76.96;98500.37;2259342;79;21740;-74
2021/04/08 03:33:44;;;;;;;35.70;11.40;;;;;;;-0.81;77.79;98518.78;2259208;79;21293;-74
2021/04/08 03:36:46;;;;;;;31.48;11.20;;;;;;;-0.82;78.51;98513.67;2259364;79;21288;-74
2021/04/08 03:39:49;;;;;;;36.10;13.15;;;;;;;-0.83;78.71;98516.70;2259660;79;21134;-74
2021/04/08 03:42:51;;;;;;;32.65;13.13;;;;;;;-0.83;79.07;98514.12;2259259;79;21292;-74
2021/04/08 03:45:53;;;;;;;36.20;12.75;;;;;;;-0.84;79.25;98516.28;2259344;79;21280;-73
2021/04/08 03:48:55;;;;;;;35.03;13.72;;;;;;;-0.85;80.53;98516.31;2259285;79;21601;-74
2021/04/08 03:51:57;;;;;;;32.85;13.03;;;;;;;-0.87;80.31;98512.48;2259238;79;21704;-73
2021/04/08 03:54:59;;;;;;;33.18;13.18;;;;;;;-0.85;80.58;98509.88;2259219;79;21312;-74
2021/04/08 03:58:00;;;;;;;33.48;12.10;;;;;;;-0.80;81.07;98515.34;2259276;79;21273;-74
2021/04/08 04:01:03;;;;;;;33.67;12.70;;;;;;;-0.82;80.87;98508.09;2259458;79;21154;-73
2021/04/08 04:04:05;;;;;;;32.83;14.18;;;;;;;-0.76;80.49;98506.68;2259218;79;21292;-73
2021/04/08 04:07:07;;;;;;;32.95;12.78;;;;;;;-0.70;80.84;98506.99;2259347;79;21276;-74
2021/04/08 04:10:09;;;;;;;31.48;12.75;;;;;;;-0.66;81.06;98495.75;2259380;79;21700;-73
2021/04/08 04:13:11;;;;;;;33.20;13.00;;;;;;;-0.61;81.30;98512.39;2227238;79;21780;-73
2021/04/08 04:16:13;;;;;;;32.80;13.03;;;;;;;-0.57;81.09;98507.59;2259315;79;21712;-74
2021/04/08 04:19:15;;;;;;;34.58;12.70;;;;;;;-0.53;80.88;98507.48;2259219;79;21276;-74
2021/04/08 04:22:17;;;;;;;30.32;11.63;;;;;;;-0.44;81.10;98506.89;2259574;79;21268;-74
2021/04/08 04:25:19;;;;;;;35.17;12.63;;;;;;;-0.42;81.23;98504.66;2227480;79;21276;-74
2021/04/08 04:28:21;;;;;;;40.38;15.98;;;;;;;-0.36;81.35;98500.69;2259166;79;21133;-74
2021/04/08 04:31:23;;;;;;;31.30;13.58;;;;;;;-0.29;80.98;98507.83;2259351;79;21264;-74
2021/04/08 04:34:25;;;;;;;32.15;14.15;;;;;;;-0.26;80.57;98518.09;2259270;79;21693;-74
2021/04/08 04:37:27;;;;;;;32.03;13.32;;;;;;;-0.24;81.14;98512.90;2259227;79;21134;-74
2021/04/08 04:40:29;;;;;;;34.08;14.33;;;;;;;-0.24;81.29;98509.88;2259731;79;21143;-74
2021/04/08 04:43:31;;;;;;;34.83;13.48;;;;;;;-0.25;81.37;98516.35;2259325;79;21297;-74
2021/04/08 04:46:34;;;;;;;34.92;13.62;;;;;;;-0.25;81.35;98513.77;2227277;79;21723;-73
2021/04/08 04:49:36;;;;;;;34.75;12.88;;;;;;;-0.30;81.84;98521.62;2259210;79;21279;-74
2021/04/08 04:52:38;;;;;;;39.80;16.32;;;;;;;-0.35;82.83;98522.14;2259518;79;21280;-74
2021/04/08 04:55:40;;;;;;;47.03;17.82;;;;;;;-0.35;82.59;98517.82;2260324;79;21280;-74
2021/04/08 04:58:42;;;;;;;34.33;13.05;;;;;;;-0.28;82.00;98522.87;2266344;79;21742;-74
2021/04/08 05:01:44;;;;;;;53.65;17.73;;;;;;;-0.27;83.22;98528.44;2266585;79;21267;-73
2021/04/08 05:04:46;;;;;;;48.28;17.30;;;;;;;-0.28;83.30;98534.02;2266661;79;21288;-74
2021/04/08 05:07:48;;;;;;;32.33;12.20;;;;;;;-0.26;83.58;98536.14;2266368;79;21708;-73
2021/04/08 05:10:50;;;;;;;31.27;13.13;;;;;;;-0.23;83.31;98529.62;2266304;79;21700;-74
2021/04/08 05:13:52;;;;;;;31.17;12.35;;;;;;;-0.17;83.63;98527.34;2266281;79;21149;-74
2021/04/08 05:16:54;;;;;;;27.07;12.20;;;;;;;-0.10;83.91;98543.51;2266359;79;21253;-74
2021/04/08 05:19:57;;;;;;;32.30;14.18;;;;;;;-0.05;83.39;98537.37;2266442;79;21680;-74
2021/04/08 05:22:59;;;;;;;27.75;10.50;;;;;;;0.00;83.43;98557.92;2236591;79;21276;-74
2021/04/08 05:26:01;;;;;;;27.82;10.00;;;;;;;-0.03;83.30;98556.67;2266455;79;21275;-74
2021/04/08 05:29:03;;;;;;;32.95;11.88;;;;;;;-0.04;84.02;98556.29;2266437;79;21298;-74
2021/04/08 05:32:05;;;;;;;40.15;16.42;;;;;;;0.09;83.86;98559.44;2266460;79;21546;-74
2021/04/08 05:35:07;;;;;;;29.42;12.53;;;;;;;0.22;83.47;98562.13;2236802;79;21304;-74
2021/04/08 05:38:09;;;;;;;32.08;11.85;;;;;;;0.28;83.44;98560.69;2266554;79;21720;-74
2021/04/08 05:41:11;;;;;;;30.17;12.25;;;;;;;0.38;83.58;98575.52;2236767;79;21272;-74
2021/04/08 05:44:13;;;;;;;27.75;11.20;;;;;;;0.43;83.16;98570.24;2266543;79;21256;-74
2021/04/08 05:47:15;;;;;;;28.73;11.28;;;;;;;0.54;83.16;98578.58;2266532;79;21256;-73
2021/04/08 05:50:17;;;;;;;26.68;11.38;;;;;;;0.67;82.58;98574.80;2266489;79;21748;-74
2021/04/08 05:53:19;;;;;;;24.65;9.48;;;;;;;0.77;82.58;98587.50;2266496;79;21291;-74
2021/04/08 05:56:21;;;;;;;26.57;11.03;;;;;;;0.89;82.31;98595.38;2266814;78;21154;-74
2021/04/08 05:59:23;;;;;;;27.95;10.95;;;;;;;0.96;82.03;98592.61;2266502;79;21712;-74
2021/04/08 06:02:25;;;;;;;28.32;11.83;;;;;;;1.01;81.97;98598.94;2266456;79;21126;-74
2021/04/08 06:05:27;;;;;;;25.27;9.70;;;;;;;1.21;81.62;98587.63;2266503;79;21248;-74
2021/04/08 06:08:29;;;;;;;25.65;10.45;;;;;;;1.37;80.85;98607.90;2266518;78;21256;-74
2021/04/08 06:11:31;;;;;;;25.92;11.30;;;;;;;1.49;80.25;98592.49;2266875;79;21150;-74
2021/04/08 06:14:35;;;;;;;27.67;12.10;;;;;;;1.63;79.88;98594.70;2266464;79;21292;-74
2021/04/08 06:17:37;;;;;;;27.42;12.40;;;;;;;1.69;79.64;98603.11;2266293;79;21130;-74
2021/04/08 06:20:39;;;;;;;28.90;12.07;;;;;;;1.73;79.33;98603.43;2266514;79;21276;-74
2021/04/08 06:23:41;;;;;;;26.48;11.15;;;;;;;1.74;79.23;98614.64;2266458;79;21122;-74
2021/04/08 06:26:43;;;;;;;27.15;11.33;;;;;;;1.73;79.17;98620.70;2266459;79;21291;-74
2021/04/08 06:29:45;;;;;;;27.85;11.22;;;;;;;1.82;79.01;98613.95;2266457;79;21271;-74
2021/04/08 06:32:48;;;;;;;28.65;12.65;;;;;;;1.93;78.78;98627.88;2266409;79;21292;-74
2021/04/08 06:35:50;;;;;;;29.90;13.13;;;;;;;1.92;78.69;98622.76;2266443;79;21273;-74
2021/04/08 06:38:52;;;;;;;30.60;12.98;;;;;;;1.76;78.80;98630.95;2236493;79;21143;-74
2021/04/08 06:41:54;;;;;;;35.38;16.10;;;;;;;1.64;79.28;98639.91;2266391;79;21139;-74
2021/04/08 06:44:56;;;;;;;29.02;12.37;;;;;;;1.53;79.64;98633.72;2266347;79;21276;-74
2021/04/08 06:47:58;;;;;;;29.37;13.08;;;;;;;1.53;79.64;98633.72;2266422;79;21292;-73
2021/04/08 06:51:00;;;;;;;29.95;13.55;;;;;;;1.58;80.08;98646.97;2266481;79;21269;-74
2021/04/08 06:54:02;;;;;;;28.73;12.13;;;;;;;1.59;80.31;98653.39;2266485;79;21281;-73
2021/04/08 06:57:04;;;;;;;28.50;13.55;;;;;;;1.58;80.54;98652.14;2266354;79;21122;-73
2021/04/08 07:00:06;;;;;;;28.00;13.22;;;;;;;1.50;80.70;98654.48;2266438;79;21275;-73
2021/04/08 07:03:08;;;;;;;30.12;13.68;;;;;;;1.49;81.00;98667.00;2266410;79;21245;-73
2021/04/08 07:06:10;;;;;;;29.52;13.58;;;;;;;1.43;81.27;98670.21;2266536;79;21248;-74
2021/04/08 07:09:12;;;;;;;32.10;14.03;;;;;;;1.48;81.42;98679.55;2266424;79;21272;-73
2021/04/08 07:12:14;;;;;;;34.27;14.15;;;;;;;1.52;81.70;98686.34;2266374;79;21328;-74
2021/04/08 07:15:16;;;;;;;28.12;11.60;;;;;;;1.36;82.17;98694.06;2266386;79;21299;-74
2021/04/08 07:18:18;;;;;;;28.47;10.40;;;;;;;1.27;82.74;98702.91;2266426;79;21264;-74
2021/04/08 07:21:20;;;;;;;31.60;13.40;;;;;;;1.18;83.02;98714.32;2266436;79;21260;-74
2021/04/08 07:24:24;;;;;;;27.10;11.20;;;;;;;1.13;83.32;98715.31;2266403;79;21292;-74
2021/04/08 07:27:26;;;;;;;25.45;10.28;;;;;;;1.08;83.71;98722.31;2179797;82;21608;-74
2021/04/08 07:30:28;;;;;;;24.27;9.35;;;;;;;1.14;83.89;98727.36;2170037;81;21271;-74
2021/04/08 07:33:30;;;;;;;22.95;8.35;;;;;;;1.24;83.10;98734.00;2198255;81;21751;-73
2021/04/08 07:36:32;;;;;;;20.97;7.20;;;;;;;1.20;83.03;98750.45;2198198;81;21280;-74
2021/04/08 07:39:34;;;;;;;19.95;6.58;;;;;;;1.30;82.62;98762.72;2198185;81;21287;-74
2021/04/08 07:42:37;;;;;;;19.42;6.90;;;;;;;1.52;81.50;98760.44;2198080;81;21275;-74
2021/04/08 07:45:39;;;;;;;21.00;6.33;;;;;;;1.81;80.77;98770.47;2198212;81;21327;-74
2021/04/08 07:48:41;;;;;;;17.67;5.12;;;;;;;2.09;78.20;98771.89;2198223;81;21311;-74
2021/04/08 07:51:43;;;;;;;19.10;5.75;;;;;;;2.07;78.04;98782.28;2198185;81;21268;-74
2021/04/08 07:54:45;;;;;;;19.77;5.17;;;;;;;2.14;77.74;98781.68;2198384;81;21300;-74
2021/04/08 07:57:47;;;;;;;20.68;5.90;;;;;;;2.23;76.71;98785.75;2198134;81;21157;-73
2021/04/08 08:00:49;;;;;;;17.25;4.70;;;;;;;2.25;77.23;98791.72;2198540;81;21295;-73
2021/04/08 08:03:53;;;;;;;19.55;5.25;;;;;;;2.24;76.67;98815.47;2198058;81;21148;-73
2021/04/08 08:06:55;;;;;;;17.90;5.05;;;;;;;2.33;76.85;98805.30;2198238;81;21292;-73
2021/04/08 08:09:57;;;;;;;17.87;5.20;;;;;;;2.68;76.07;98807.33;2198156;81;21747;-72
2021/04/08 08:12:59;;;;;;;22.27;5.72;;;;;;;2.79;75.01;98816.09;2198124;81;21275;-73
2021/04/08 08:16:02;;;;;;;19.30;5.33;;;;;;;2.84;75.27;98814.20;2198276;81;21296;-73
2021/04/08 08:19:07;;;;;;;17.80;4.85;;;;;;;2.84;74.64;98824.56;2198035;81;21287;-73
2021/04/08 08:22:11;;;;;;;20.23;5.58;;;;;;;2.75;74.74;98832.61;2198295;81;21307;-73
2021/04/08 08:25:13;;;;;;;19.23;5.28;;;;;;;2.71;75.27;98830.54;2198190;81;21275;-73
2021/04/08 08:28:15;;;;;;;22.82;5.65;;;;;;;2.63;74.60;98836.41;2198507;81;21288;-73
2021/04/08 08:31:17;;;;;;;16.90;4.92;;;;;;;2.61;74.97;98838.17;2198171;81;21272;-73
2021/04/08 08:34:19;;;;;;;16.67;4.87;;;;;;;2.74;76.04;98846.02;2167618;81;21157;-74
2021/04/08 08:37:22;;;;;;;;;;;;;;;2.86;75.01;98853.01;2170156;81;21775;-74
2021/04/08 08:40:24;;;;;;;20.82;5.53;;;;;;;2.77;75.13;98852.41;2198600;81;20232;-74
2021/04/08 08:43:26;;;;;;;20.05;5.00;;;;;;;2.77;76.47;98855.00;2198386;81;21141;-74
2021/04/08 08:46:28;;;;;;;19.23;4.58;;;;;;;2.82;76.93;98863.09;2198253;81;21736;-74
2021/04/08 08:49:33;;;;;;;16.65;4.28;;;;;;;2.71;74.90;98871.98;2198278;81;21303;-73
2021/04/08 08:52:35;;;;;;;18.73;4.35;;;;;;;2.60;75.91;98889.56;2198448;81;21279;-74
2021/04/08 08:55:37;;;;;;;20.05;5.00;;;;;;;2.60;76.47;98873.59;2198017;81;21149;-73
2021/04/08 08:58:40;;;;;;;14.68;3.62;;;;;;;2.68;76.63;98878.55;2198053;81;21736;-73
2021/04/08 09:01:42;;;;;;;22.30;4.70;;;;;;;2.67;75.13;98882.05;2172760;82;21179;-73
2021/04/08 09:04:44;;;;;;;18.75;4.58;;;;;;;2.73;76.60;98884.47;2181658;82;21569;-73
2021/04/08 09:07:46;;;;;;;21.52;5.03;;;;;;;3.07;78.00;98891.70;2172841;82;21601;-74
2021/04/08 09:10:48;;;;;;;19.80;4.92;;;;;;;3.35;77.48;98898.22;2181614;82;21119;-74
2021/04/08 09:13:50;;;;;;;20.85;4.97;;;;;;;3.43;75.89;98893.66;2173269;82;21720;-74
2021/04/08 09:16:54;;;;;;;15.65;3.80;;;;;;;3.66;77.48;98894.66;2182227;82;21268;-74
2021/04/08 09:19:56;;;;;;;19.95;4.70;;;;;;;3.62;73.25;98907.33;2172944;82;21284;-74
2021/04/08 09:22:58;;;;;;;19.23;4.42;;;;;;;3.51;75.54;98907.67;2181627;82;21177;-73
2021/04/08 09:26:01;;;;;;;;;;;;;;;3.55;75.56;98905.39;2175625;82;21320;-74
2021/04/08 09:29:03;;;;;;;21.52;5.00;;;;;;;3.65;72.58;98913.74;2173323;82;20149;-74
2021/04/08 09:32:05;;;;;;;20.52;4.53;;;;;;;3.94;75.27;98915.39;2181677;82;21154;-74
2021/04/08 09:35:08;;;;;;;17.23;3.98;;;;;;;4.03;73.03;98941.50;2173002;82;21130;-74
2021/04/08 09:38:10;;;;;;;16.67;3.90;;;;;;;4.18;72.92;98927.19;2181703;82;21573;-74
2021/04/08 09:41:12;;;;;;;18.52;4.17;;;;;;;4.35;72.96;98920.09;2173089;82;21776;-74
2021/04/08 09:44:14;;;;;;;19.35;4.17;;;;;;;4.69;74.08;98940.56;2181566;82;21142;-74
2021/04/08 09:47:16;;;;;;;18.85;3.87;;;;;;;4.76;69.51;98928.67;2173011;82;21316;-73
2021/04/08 09:50:18;;;;;;;18.50;3.90;;;;;;;4.68;68.97;98936.72;2181582;82;21130;-74
2021/04/08 09:53:20;;;;;;;17.90;3.60;;;;;;;4.64;68.47;98931.23;2172946;82;21285;-74
2021/04/08 09:56:22;;;;;;;18.70;3.65;;;;;;;4.58;70.08;98923.66;2181587;82;21165;-75
2021/04/08 09:59:24;;;;;;;16.80;3.60;;;;;;;4.29;69.83;98965.30;2172934;82;21317;-74
2021/04/08 10:02:26;;;;;;;19.05;4.70;;;;;;;3.81;72.82;98958.21;2181583;82;21149;-74
2021/04/08 10:05:28;;;;;;;17.30;4.05;;;;;;;3.47;74.12;98962.66;2173020;82;21276;-74
2021/04/08 10:08:36;;;;;;;19.85;3.90;;;;;;;3.51;74.33;98970.38;2181882;82;21288;-74
2021/04/08 10:11:35;;;;;;;18.57;4.00;;;;;;;3.54;73.03;98972.87;2172345;82;21268;-74
2021/04/08 10:14:37;;;;;;;13.88;3.98;;;;;;;3.65;72.63;98970.81;2151416;82;21312;-74
2021/04/08 10:17:39;;;;;;;17.23;4.10;;;;;;;4.15;75.12;98955.81;2143768;82;21290;-73
2021/04/08 10:20:42;;;;;;;19.80;4.72;;;;;;;4.84;70.58;98972.11;2181519;82;21153;-73
2021/04/08 10:23:44;;;;;;;19.42;3.83;;;;;;;4.83;70.51;98969.97;2172963;82;21154;-73
2021/04/08 10:26:46;;;;;;;17.77;4.22;;;;;;;4.60;68.72;98974.67;2181570;82;21320;-74
2021/04/08 10:29:48;;;;;;;18.02;3.90;;;;;;;4.42;70.07;98980.48;2173081;82;21760;-73
2021/04/08 10:32:50;;;;;;;12.03;3.65;;;;;;;4.06;68.22;98981.63;2181826;82;21158;-73
2021/04/08 10:35:52;;;;;;;15.93;3.75;;;;;;;3.74;70.79;98988.67;2173063;82;21751;-73
2021/04/08 10:38:54;;;;;;;17.92;3.87;;;;;;;3.51;71.92;98982.89;2181642;82;21299;-74
2021/04/08 10:41:56;;;;;;;19.50;4.00;;;;;;;3.53;72.77;98984.14;2173024;82;21157;-74
2021/04/08 10:44:58;;;;;;;13.75;3.75;;;;;;;3.69;71.15;98988.41;2181664;82;21182;-74
2021/04/08 10:48:00;;;;;;;21.42;4.08;;;;;;;4.27;69.29;98993.54;2172966;82;21276;-74
2021/04/08 10:51:02;;;;;;;20.43;3.95;;;;;;;4.66;70.18;98991.80;2181482;82;21142;-74
2021/04/08 10:54:04;;;;;;;17.98;3.90;;;;;;;5.23;69.58;98982.00;2172844;82;21316;-73
2021/04/08 10:57:06;;;;;;;19.17;3.52;;;;;;;5.28;66.11;98982.66;2179613;82;21748;-74
2021/04/08 11:00:08;;;;;;;15.03;3.27;;;;;;;4.91;65.80;98991.78;2170278;82;21281;-74
2021/04/08 11:03:10;;;;;;;13.88;2.90;;;;;;;4.71;62.07;98991.17;2170570;82;21143;-74
2021/04/08 11:06:13;;;;;;;17.00;3.65;;;;;;;5.09;65.74;98992.06;2170742;82;21273;-73
2021/04/08 11:09:15;;;;;;;13.78;3.45;;;;;;;5.46;60.88;98994.16;2144807;82;21289;-74
2021/04/08 11:12:17;;;;;;;17.67;4.00;;;;;;;5.81;60.49;99004.13;2170226;82;21309;-73
2021/04/08 11:15:19;;;;;;;17.98;3.75;;;;;;;6.01;58.29;98987.30;2170233;82;21166;-73
2021/04/08 11:18:21;;;;;;;20.25;3.52;;;;;;;6.07;60.18;98980.53;2170259;82;21760;-73
2021/04/08 11:21:24;;;;;;;;;;;;;;;6.11;59.34;98994.76;2172661;82;21178;-73
2021/04/08 11:24:26;;;;;;;13.95;3.37;;;;;;;6.43;58.60;98991.30;2144866;82;20222;-73
2021/04/08 11:27:28;;;;;;;13.62;3.30;;;;;;;6.54;57.26;99026.88;2170311;82;21155;-73
2021/04/08 11:30:31;;;;;;;17.00;4.05;;;;;;;6.76;56.98;99000.75;2170369;82;21296;-73
2021/04/08 11:33:33;;;;;;;14.28;3.27;;;;;;;6.99;56.65;98989.33;2170173;82;21158;-73
2021/04/08 11:36:35;;;;;;;17.42;3.30;;;;;;;6.70;55.41;98990.59;2170518;82;21281;-73
2021/04/08 11:39:37;;;;;;;13.62;3.12;;;;;;;6.25;58.31;99000.26;2170372;82;21111;-73
2021/04/08 11:42:39;;;;;;;10.65;3.00;;;;;;;6.04;55.12;99024.09;2170198;82;21293;-73
2021/04/08 11:45:42;;;;;;;;;;;;;;;6.48;55.73;99017.98;2173166;82;21327;-73
2021/04/08 11:48:44;;;;;;;12.37;2.90;;;;;;;6.41;56.75;99022.16;2170568;82;20142;-73
2021/04/08 11:51:48;;;;;;;14.58;3.20;;;;;;;6.57;54.21;99001.52;2170236;82;21617;-73
2021/04/08 11:54:50;;;;;;;15.98;3.10;;;;;;;6.62;53.74;99005.70;2170043;82;21167;-73
2021/04/08 11:57:52;;;;;;;11.43;3.47;;;;;;;6.08;53.50;99023.06;2174091;82;21197;-73
2021/04/08 12:00:54;;;;;;;12.68;3.10;;;;;;;5.92;54.19;99011.51;2172970;82;21268;-73
2021/04/08 12:03:56;;;;;;;15.40;3.30;;;;;;;6.21;55.59;99013.02;2181407;82;21272;-73
2021/04/08 12:06:59;;;;;;;15.43;3.33;;;;;;;6.09;55.02;99004.38;2172997;82;21308;-73
2021/04/08 12:10:02;;;;;;;11.57;2.40;;;;;;;5.92;58.25;99021.92;2181330;82;21158;-72
2021/04/08 12:13:04;;;;;;;14.13;3.30;;;;;;;6.57;55.29;99008.50;2172809;82;21601;-73
2021/04/08 12:16:06;;;;;;;11.38;2.87;;;;;;;6.86;53.43;99005.95;2181503;82;21740;-73
2021/04/08 12:19:08;;;;;;;12.88;2.92;;;;;;;7.05;52.55;99027.34;2143482;82;21141;-73
2021/04/08 12:22:10;;;;;;;;;;;;;;;7.06;52.32;99030.34;2183930;82;21133;-73
2021/04/08 12:25:17;;;;;;;8.90;2.35;;;;;;;6.46;50.02;99026.34;2181434;82;20504;-73
2021/04/08 12:28:19;;;;;;;12.90;2.67;;;;;;;5.96;54.19;99054.31;2172738;82;21150;-73
2021/04/08 12:31:21;;;;;;;10.28;2.40;;;;;;;5.41;56.26;99078.48;2181429;82;21138;-73
2021/04/08 12:34:23;;;;;;;6.83;1.80;;;;;;;5.15;56.25;99069.38;2173174;82;21309;-73
2021/04/08 12:37:25;;;;;;;7.85;2.22;;;;;;;4.86;55.99;99062.59;2181426;82;21292;-73
2021/04/08 12:40:27;;;;;;;8.28;2.47;;;;;;;4.89;58.82;99055.14;2172975;82;21293;-73
2021/04/08 12:43:30;;;;;;;5.72;2.00;;;;;;;5.71;58.43;99053.08;2181625;82;21313;-73
2021/04/08 12:46:32;;;;;;;7.83;2.12;;;;;;;6.47;56.36;99043.21;2143303;82;21162;-73
2021/04/08 12:49:34;;;;;;;7.83;1.85;;;;;;;6.78;53.52;99058.91;2181412;82;21728;-73
2021/04/08 12:52:36;;;;;;;7.28;2.15;;;;;;;6.37;52.37;99058.83;2173170;82;21157;-73
2021/04/08 12:55:39;;;;;;;8.83;2.25;;;;;;;6.04;52.80;99047.53;2181143;82;21159;-73
2021/04/08 12:58:41;;;;;;;11.28;2.55;;;;;;;6.51;54.00;99059.12;2176346;82;21654;-74
2021/04/08 13:01:43;;;;;;;12.60;2.92;;;;;;;7.00;51.10;99060.61;2198218;81;21731;-73
2021/04/08 13:04:45;;;;;;;14.25;3.45;;;;;;;7.34;51.72;99048.25;2179782;81;21142;-73
2021/04/08 13:07:47;;;;;;;13.20;2.80;;;;;;;6.89;50.56;99054.53;2170218;81;21150;-73
2021/04/08 13:10:49;;;;;;;13.38;2.85;;;;;;;6.18;51.98;99053.51;2179963;81;21154;-73
2021/04/08 13:13:52;;;;;;;10.93;3.00;;;;;;;5.82;54.23;99052.66;2198585;81;21158;-73
2021/04/08 13:16:54;;;;;;;12.25;2.65;;;;;;;5.55;56.02;99060.14;2179770;81;21106;-73
2021/04/08 13:19:56;;;;;;;11.40;2.92;;;;;;;5.25;58.42;99096.38;2198265;81;21163;-74
2021/04/08 13:22:58;;;;;;;16.73;4.28;;;;;;;4.71;62.67;99092.52;2179758;81;21157;-73
2021/04/08 13:26:00;;;;;;;14.58;3.72;;;;;;;4.51;65.25;99090.56;2198159;81;21727;-74
2021/04/08 13:29:02;;;;;;;19.48;4.28;;;;;;;4.70;63.85;99088.24;2179791;81;21295;-74
2021/04/08 13:32:04;;;;;;;10.08;2.60;;;;;;;5.09;63.49;99087.80;2198102;81;21275;-74
2021/04/08 13:35:06;;;;;;;16.32;3.33;;;;;;;5.51;65.86;99080.67;2179827;82;21617;-73
2021/04/08 13:38:08;;;;;;;14.75;3.52;;;;;;;6.28;63.36;99076.11;2198342;81;21182;-74
2021/04/08 13:41:10;;;;;;;16.60;3.90;;;;;;;6.20;62.29;99083.77;2179746;81;21134;-74
2021/04/08 13:44:12;;;;;;;10.13;2.40;;;;;;;5.38;63.31;99115.38;2198045;81;21291;-73
2021/04/08 13:47:14;;;;;;;6.05;1.57;;;;;;;4.75;64.85;99160.85;2179700;81;21743;-74
2021/04/08 13:50:17;;;;;;;9.15;1.98;;;;;;;4.10;67.44;99200.00;2197997;81;21157;-74
2021/04/08 13:53:19;;;;;;;8.35;2.33;;;;;;;3.83;69.45;99180.03;2179696;81;21190;-74
2021/04/08 13:56:21;;;;;;;5.55;2.02;;;;;;;3.99;72.62;99180.86;2169851;81;21448;-73
2021/04/08 13:59:23;;;;;;;10.70;2.17;;;;;;;3.46;74.40;99181.43;2195232;81;21320;-75
2021/04/08 14:02:28;;;;;;;7.37;2.12;;;;;;;2.59;78.31;99196.08;2155609;83;21157;-76
2021/04/08 14:05:31;;;;;;;9.38;2.10;;;;;;;1.74;80.27;99201.70;2169428;82;21610;-77
2021/04/08 14:08:53;;;;;;;12.30;2.98;;;;;;;1.42;81.91;99188.06;2154632;83;21283;-75
2021/04/08 14:11:59;;;;;;;14.73;3.30;;;;;;;1.63;82.10;99172.16;2169553;82;21312;-75